Saint-Vith, Belgium
Current Conditions -  °F | °C
As of 1:25 PM on Monday 20 Oct 2014 (Local Time) from EBLB Reporting Station
Broken Clouds Broken Clouds  
Wind Chill: 54°   Ceiling: 3100
Heat Index: 54°   Visibility: 6mi
Dew Point: 46°   Wind: 13mph
Humidity: 77%   Direction: 260°W
Pressure: 30.09"   Gusts: NA
Location:  50.28°N, 6.13°E
Report Text: EBLB 201125Z AUTO 26011KT 9999 FEW016/// SCT026/// BKN031/// 12/08 Q1019 BLU
Loading
Personal Weather Stations






























Interactive Weather Map
Tropical Storm Tracking
New forecast layout! Learn more

10-Day Weather Forecast

Advertisements
Track Severe Weather on mobile